Zooks Corner, Pennsylvania
Current Conditions -  °F | °C
As of 2:05 AM on Wednesday 22 Oct 2014 (Local Time) from KLNS Reporting Station
Light Rain Light Rain  
Wind Chill: 54°   Ceiling: 3100
Heat Index: 54°   Visibility: 10mi
Dew Point: 49°   Wind: 8mph
Humidity: 83%   Direction: 10°N
Pressure: 29.88"   Gusts: NA
Location:  40.0158°N, 76.2452°W
Report Text: KLNS 220605Z AUTO 01007KT 10SM -RA SCT021 BKN031 OVC085 12/09 A2988 RMK AO2 RAB0554 P0000 T01220094
Loading
Personal Weather Stations






























Interactive Weather Map
Tropical Storm Tracking
New forecast layout! Learn more

10-Day Weather Forecast

Advertisements
Track Severe Weather on mobile